createdAt,value
2017-08-28T00:00:35.668Z,98.30
2017-08-28T00:03:03.311Z,97.80
2017-08-28T00:05:30.940Z,97.10
2017-08-28T00:07:58.563Z,97.00
2017-08-28T00:10:26.217Z,97.70
2017-08-28T00:12:53.869Z,97.60
2017-08-28T00:15:21.532Z,97.80
2017-08-28T00:17:49.172Z,97.50
2017-08-28T00:20:16.805Z,98.00
2017-08-28T00:22:44.478Z,97.80
2017-08-28T00:25:12.418Z,98.20
2017-08-28T00:27:40.087Z,97.70
2017-08-28T00:30:07.797Z,97.60
2017-08-28T00:32:35.409Z,97.20
2017-08-28T00:35:03.020Z,98.00
2017-08-28T00:37:30.698Z,98.20
2017-08-28T00:39:58.326Z,97.90
2017-08-28T00:42:25.968Z,97.40
2017-08-28T00:44:53.642Z,97.30
2017-08-28T00:47:21.296Z,97.00
2017-08-28T00:49:48.966Z,97.40
2017-08-28T00:52:16.649Z,97.70
2017-08-28T00:54:44.329Z,97.60
2017-08-28T00:57:11.960Z,97.60
2017-08-28T00:59:39.625Z,97.80
2017-08-28T01:02:07.399Z,97.90
2017-08-28T01:04:35.047Z,98.30
2017-08-28T01:07:02.760Z,98.00
2017-08-28T01:09:30.451Z,97.60
2017-08-28T01:11:58.067Z,97.50
2017-08-28T01:14:25.753Z,97.50
2017-08-28T01:16:53.403Z,97.20
2017-08-28T01:19:21.061Z,97.10
2017-08-28T01:21:48.705Z,97.60
2017-08-28T01:24:16.312Z,97.10
2017-08-28T01:26:43.949Z,97.00
2017-08-28T01:29:11.759Z,96.70
2017-08-28T01:31:40.331Z,96.40
2017-08-28T01:34:08.014Z,96.50
2017-08-28T01:36:35.644Z,96.30
2017-08-28T01:39:03.386Z,96.50
2017-08-28T01:41:31.014Z,96.10
2017-08-28T01:43:58.651Z,96.40
2017-08-28T01:46:26.336Z,96.90
2017-08-28T01:48:53.979Z,96.80
2017-08-28T01:51:21.652Z,96.90
2017-08-28T01:53:49.353Z,96.40
2017-08-28T01:56:16.984Z,96.40
2017-08-28T01:58:44.637Z,96.50
2017-08-28T02:01:12.375Z,97.00
2017-08-28T02:03:39.983Z,97.10
2017-08-28T02:06:07.610Z,97.30
2017-08-28T02:08:35.263Z,97.40
2017-08-28T02:11:02.908Z,97.20
2017-08-28T02:13:30.539Z,97.00
2017-08-28T02:15:58.235Z,96.50
2017-08-28T02:18:25.909Z,97.20
2017-08-28T02:20:53.548Z,97.60
2017-08-28T02:23:21.591Z,97.70
2017-08-28T02:25:49.651Z,96.60
2017-08-28T02:28:17.732Z,96.20
2017-08-28T02:30:45.360Z,95.90
2017-08-28T02:33:13.040Z,96.20
2017-08-28T02:35:40.708Z,96.30
2017-08-28T02:38:08.357Z,96.60
2017-08-28T02:40:35.975Z,97.10
2017-08-28T02:43:03.638Z,96.50
2017-08-28T02:45:31.258Z,96.50
2017-08-28T02:47:58.873Z,97.40
2017-08-28T02:50:28.087Z,97.40
2017-08-28T02:52:55.744Z,97.30
2017-08-28T02:55:23.383Z,97.30
2017-08-28T02:57:51.082Z,97.00
2017-08-28T03:00:18.727Z,96.90
2017-08-28T03:02:46.377Z,96.70
2017-08-28T03:05:14.105Z,97.10
2017-08-28T03:07:41.735Z,97.60
2017-08-28T03:10:09.369Z,97.40
2017-08-28T03:12:37.027Z,97.10
2017-08-28T03:15:07.906Z,95.70
2017-08-28T03:17:35.541Z,96.20
2017-08-28T03:20:03.231Z,95.30
2017-08-28T03:22:30.969Z,94.70
2017-08-28T03:24:58.624Z,95.00
2017-08-28T03:27:27.656Z,95.00
2017-08-28T03:29:55.283Z,95.20
2017-08-28T03:32:22.932Z,95.80
2017-08-28T03:34:50.845Z,96.30
2017-08-28T03:37:21.294Z,96.70
2017-08-28T03:39:48.972Z,96.10
2017-08-28T03:42:16.673Z,96.10
2017-08-28T03:44:44.331Z,96.10
2017-08-28T03:47:12.203Z,95.90
2017-08-28T03:49:39.897Z,96.20
2017-08-28T03:52:07.557Z,97.10
2017-08-28T03:54:35.237Z,97.30
2017-08-28T03:57:02.936Z,96.90
2017-08-28T03:59:30.593Z,96.50
2017-08-28T04:01:58.259Z,96.50
2017-08-28T04:04:25.928Z,96.10
2017-08-28T04:06:53.607Z,95.90
2017-08-28T04:09:21.357Z,95.90
2017-08-28T04:11:49.041Z,95.90
2017-08-28T04:14:16.667Z,95.70
2017-08-28T04:16:44.333Z,94.40
2017-08-28T04:19:12.128Z,95.40
2017-08-28T04:21:39.784Z,95.80
2017-08-28T04:24:07.429Z,96.40
2017-08-28T04:26:35.127Z,96.80
2017-08-28T04:29:02.790Z,97.10
2017-08-28T04:31:30.434Z,96.70
2017-08-28T04:33:58.072Z,96.80
2017-08-28T04:36:25.748Z,96.90
2017-08-28T04:38:53.384Z,96.80
2017-08-28T04:41:21.121Z,95.80
2017-08-28T04:43:48.758Z,94.80
2017-08-28T04:46:16.464Z,94.60
2017-08-28T04:48:44.085Z,94.40
2017-08-28T04:51:11.807Z,95.40
2017-08-28T04:53:39.456Z,95.90
2017-08-28T04:56:07.159Z,96.10
2017-08-28T04:58:34.797Z,95.20
2017-08-28T05:01:02.428Z,95.10
2017-08-28T05:03:30.103Z,95.00
2017-08-28T05:05:57.712Z,96.20
2017-08-28T05:08:25.329Z,96.30
2017-08-28T05:10:52.980Z,95.90
2017-08-28T05:13:20.645Z,95.00
2017-08-28T05:15:48.332Z,94.40
2017-08-28T05:18:15.966Z,94.90
2017-08-28T05:20:43.586Z,94.50
2017-08-28T05:23:11.601Z,93.40
2017-08-28T05:25:39.212Z,92.80
2017-08-28T05:28:06.841Z,92.30
2017-08-28T05:30:34.538Z,92.30
2017-08-28T05:33:02.177Z,91.80
2017-08-28T05:35:29.825Z,90.70
2017-08-28T05:37:57.467Z,90.80
2017-08-28T05:40:25.175Z,90.60
2017-08-28T05:42:52.808Z,90.00
2017-08-28T05:45:20.927Z,90.30
2017-08-28T05:47:48.561Z,90.60
2017-08-28T05:50:16.178Z,90.10
2017-08-28T05:52:43.788Z,91.10
2017-08-28T05:55:11.676Z,90.00
2017-08-28T05:57:39.305Z,87.90
2017-08-28T06:00:07.061Z,86.80
2017-08-28T06:02:34.688Z,86.00
2017-08-28T06:05:02.367Z,86.10
2017-08-28T06:07:30.125Z,86.80
2017-08-28T06:09:57.794Z,86.20
2017-08-28T06:12:25.437Z,89.40
2017-08-28T06:14:53.053Z,88.20
2017-08-28T06:17:20.654Z,90.30
2017-08-28T06:19:48.350Z,85.80
2017-08-28T06:22:15.982Z,85.00
2017-08-28T06:24:43.587Z,86.10
2017-08-28T06:27:11.365Z,81.20
2017-08-28T06:29:39.005Z,82.90
2017-08-28T06:32:06.620Z,79.10
2017-08-28T06:34:34.290Z,79.60
2017-08-28T06:37:01.991Z,77.10
2017-08-28T06:39:29.657Z,77.50
2017-08-28T06:41:57.273Z,75.60
2017-08-28T06:44:24.895Z,74.60
2017-08-28T06:46:52.568Z,76.40
2017-08-28T06:49:20.331Z,78.10
2017-08-28T06:51:47.944Z,78.00
2017-08-28T06:54:15.577Z,78.50
2017-08-28T06:56:43.252Z,78.60
2017-08-28T06:59:10.947Z,79.90
2017-08-28T07:01:38.585Z,80.20
2017-08-28T07:04:06.265Z,79.90
2017-08-28T07:06:33.913Z,82.70
2017-08-28T07:09:01.548Z,83.30
2017-08-28T07:11:29.260Z,83.80
2017-08-28T07:13:56.880Z,81.70
2017-08-28T07:16:28.525Z,81.80
2017-08-28T07:18:56.212Z,82.80
2017-08-28T07:21:23.954Z,79.70
2017-08-28T07:23:51.573Z,78.80
2017-08-28T07:26:19.214Z,78.20
2017-08-28T07:28:46.900Z,78.90
2017-08-28T07:31:14.560Z,76.00
2017-08-28T07:33:42.197Z,77.00
2017-08-28T07:36:09.986Z,78.10
2017-08-28T07:38:37.684Z,78.90
2017-08-28T07:41:05.696Z,77.60
2017-08-28T07:43:33.433Z,75.70
2017-08-28T07:46:01.111Z,77.70
2017-08-28T07:48:28.800Z,74.80
2017-08-28T07:50:56.449Z,75.80
2017-08-28T07:53:24.085Z,77.20
2017-08-28T07:55:51.717Z,77.40
2017-08-28T07:58:21.013Z,77.70
2017-08-28T08:00:48.659Z,76.30
2017-08-28T08:03:16.346Z,76.50
2017-08-28T08:05:43.977Z,76.20
2017-08-28T08:08:11.629Z,78.50
2017-08-28T08:10:39.341Z,74.70
2017-08-28T08:13:07.304Z,76.00
2017-08-28T08:15:35.083Z,75.40
2017-08-28T08:18:02.834Z,76.60
2017-08-28T08:20:30.430Z,76.00
2017-08-28T08:22:58.059Z,74.40
2017-08-28T08:25:25.928Z,73.00
2017-08-28T08:27:53.679Z,74.60
2017-08-28T08:30:24.459Z,74.80
2017-08-28T08:32:52.176Z,75.50
2017-08-28T08:35:19.880Z,74.30
2017-08-28T08:37:48.604Z,75.00
2017-08-28T08:40:16.340Z,74.00
2017-08-28T08:42:44.055Z,73.90
2017-08-28T08:45:12.647Z,74.40
2017-08-28T08:47:45.556Z,75.10
2017-08-28T08:50:13.370Z,73.70
2017-08-28T08:52:41.123Z,74.00
2017-08-28T08:55:09.431Z,73.40
2017-08-28T08:57:37.414Z,74.50
2017-08-28T09:00:05.441Z,71.40
2017-08-28T09:02:33.284Z,71.20
2017-08-28T09:05:01.020Z,72.70
2017-08-28T09:07:28.728Z,74.40
2017-08-28T09:09:56.443Z,73.80
2017-08-28T09:12:24.108Z,73.50
2017-08-28T09:14:51.767Z,72.20
2017-08-28T09:17:19.430Z,72.10
2017-08-28T09:19:47.178Z,72.60
2017-08-28T09:22:14.863Z,72.60
2017-08-28T09:24:42.636Z,72.50
2017-08-28T09:27:11.211Z,72.10
2017-08-28T09:29:38.872Z,72.00
2017-08-28T09:32:06.616Z,71.80
2017-08-28T09:34:34.302Z,73.60
2017-08-28T09:37:02.092Z,72.20
2017-08-28T09:39:29.848Z,72.70
2017-08-28T09:41:57.589Z,71.70
2017-08-28T09:44:26.642Z,71.00
2017-08-28T09:46:54.385Z,71.70
2017-08-28T09:49:22.123Z,72.20
2017-08-28T09:51:49.789Z,74.50
2017-08-28T09:54:17.514Z,71.40
2017-08-28T09:56:45.247Z,72.90
2017-08-28T09:59:12.904Z,73.50
2017-08-28T10:01:41.476Z,71.10
2017-08-28T10:04:09.321Z,71.90
2017-08-28T10:06:36.974Z,68.50
2017-08-28T10:09:05.005Z,68.40
2017-08-28T10:11:32.691Z,70.00
2017-08-28T10:14:01.743Z,68.80
2017-08-28T10:16:29.595Z,70.90
2017-08-28T10:18:57.293Z,68.50
2017-08-28T10:21:25.399Z,69.30
2017-08-28T10:23:55.155Z,70.60
2017-08-28T10:26:22.877Z,71.20
2017-08-28T10:28:50.725Z,71.00
2017-08-28T10:31:19.311Z,70.70
2017-08-28T10:33:48.515Z,70.40
2017-08-28T10:36:26.535Z,70.00
2017-08-28T10:38:54.915Z,68.70
2017-08-28T10:41:26.115Z,71.50
2017-08-28T10:43:58.624Z,69.70
2017-08-28T10:46:26.361Z,67.40
2017-08-28T10:48:54.098Z,68.80
2017-08-28T10:51:22.089Z,68.80
2017-08-28T10:53:50.064Z,67.70
2017-08-28T10:56:17.795Z,67.30
2017-08-28T10:58:45.941Z,69.80
2017-08-28T11:01:15.017Z,69.20
2017-08-28T11:03:42.762Z,67.70
2017-08-28T11:06:11.551Z,67.30
2017-08-28T11:08:39.218Z,66.90
2017-08-28T11:11:07.490Z,68.70
2017-08-28T11:13:35.208Z,68.80
2017-08-28T11:16:02.897Z,70.50
2017-08-28T11:18:30.587Z,67.00
2017-08-28T11:20:58.296Z,68.10
2017-08-28T11:23:26.979Z,67.30
2017-08-28T11:25:55.630Z,67.40
2017-08-28T11:28:23.405Z,67.60
2017-08-28T11:30:51.130Z,67.80
2017-08-28T11:33:19.373Z,68.30
2017-08-28T11:35:47.127Z,69.00
2017-08-28T11:38:15.247Z,67.80
2017-08-28T11:40:42.935Z,70.30
2017-08-28T11:43:10.977Z,67.70
2017-08-28T11:45:39.190Z,69.10
2017-08-28T11:48:06.873Z,68.70
2017-08-28T11:50:34.536Z,67.40
2017-08-28T11:53:08.855Z,67.20
2017-08-28T11:55:36.989Z,69.20
2017-08-28T11:58:04.749Z,68.20
2017-08-28T12:00:34.173Z,70.00
2017-08-28T12:03:01.891Z,65.80
2017-08-28T12:05:30.138Z,65.80
2017-08-28T12:07:57.822Z,66.60
2017-08-28T12:10:28.591Z,68.10
2017-08-28T12:12:56.273Z,68.10
2017-08-28T12:15:24.406Z,69.50
2017-08-28T12:17:52.246Z,68.30
2017-08-28T12:20:20.641Z,67.00
2017-08-28T12:22:49.846Z,67.70
2017-08-28T12:25:17.935Z,67.30
2017-08-28T12:27:45.748Z,67.90
2017-08-28T12:30:13.537Z,66.60
2017-08-28T12:32:41.316Z,68.70
2017-08-28T12:35:14.552Z,67.70
2017-08-28T12:37:43.699Z,69.30
2017-08-28T12:40:12.852Z,68.40
2017-08-28T12:42:41.608Z,69.50
2017-08-28T12:45:09.614Z,69.50
2017-08-28T12:47:37.435Z,69.20
2017-08-28T12:50:05.209Z,70.50
2017-08-28T12:52:32.973Z,70.00
2017-08-28T12:55:00.677Z,70.60
2017-08-28T12:57:29.420Z,72.00
2017-08-28T12:59:57.246Z,72.00
2017-08-28T13:02:25.040Z,72.50
2017-08-28T13:04:53.190Z,73.40
2017-08-28T13:07:20.938Z,72.50
2017-08-28T13:09:48.683Z,71.10
2017-08-28T13:12:16.381Z,71.30
2017-08-28T13:14:44.069Z,71.80
2017-08-28T13:17:12.064Z,71.20
2017-08-28T13:19:39.758Z,72.80
2017-08-28T13:22:09.067Z,72.60
2017-08-28T13:24:37.562Z,73.40
2017-08-28T13:27:05.849Z,72.10
2017-08-28T13:29:36.217Z,70.00
2017-08-28T13:32:04.646Z,71.10
2017-08-28T13:34:33.944Z,70.00
2017-08-28T13:37:01.689Z,68.80
2017-08-28T13:39:29.442Z,70.10
2017-08-28T13:41:57.442Z,68.90
2017-08-28T13:44:25.096Z,66.20
2017-08-28T13:46:52.756Z,68.40
2017-08-28T13:49:21.110Z,72.00
2017-08-28T13:51:48.837Z,69.30
2017-08-28T13:54:16.720Z,69.30
2017-08-28T13:56:44.483Z,68.80
2017-08-28T13:59:12.238Z,68.90
2017-08-28T14:01:42.085Z,67.50
2017-08-28T14:04:10.820Z,69.90
2017-08-28T14:06:39.166Z,66.80
2017-08-28T14:09:07.292Z,67.40
2017-08-28T14:11:40.777Z,70.00
2017-08-28T14:14:08.564Z,70.10
2017-08-28T14:16:37.379Z,71.30
2017-08-28T14:19:06.723Z,70.50
2017-08-28T14:21:34.377Z,68.50
2017-08-28T14:24:02.731Z,70.30
2017-08-28T14:26:30.376Z,71.20
2017-08-28T14:29:00.477Z,71.20
2017-08-28T14:31:28.214Z,71.50
2017-08-28T14:34:03.457Z,71.30
2017-08-28T14:36:31.421Z,70.70
2017-08-28T14:38:59.086Z,70.80
2017-08-28T14:41:26.723Z,67.80
2017-08-28T14:43:54.438Z,69.70
2017-08-28T14:46:22.104Z,69.00
2017-08-28T14:48:49.803Z,68.40
2017-08-28T14:51:17.771Z,68.10
2017-08-28T14:53:46.553Z,68.90
2017-08-28T14:56:15.286Z,70.30
2017-08-28T14:58:42.989Z,70.60
2017-08-28T15:01:10.609Z,70.30
2017-08-28T15:03:38.269Z,72.00
2017-08-28T15:06:06.003Z,73.10
2017-08-28T15:08:33.679Z,74.30
2017-08-28T15:11:01.403Z,72.40
2017-08-28T15:13:29.273Z,72.60
2017-08-28T15:15:56.955Z,73.10
2017-08-28T15:18:24.612Z,74.80
2017-08-28T15:20:52.344Z,73.90
2017-08-28T15:23:20.327Z,77.20
2017-08-28T15:25:48.069Z,76.90
2017-08-28T15:28:15.922Z,76.50
2017-08-28T15:30:43.564Z,75.40
2017-08-28T15:33:11.675Z,76.70
2017-08-28T15:35:39.415Z,76.50
2017-08-28T15:38:07.053Z,75.90
2017-08-28T15:40:34.780Z,76.60
2017-08-28T15:43:02.559Z,76.50
2017-08-28T15:45:30.235Z,77.20
2017-08-28T15:47:57.911Z,76.50
2017-08-28T15:50:25.812Z,78.10
2017-08-28T15:52:53.506Z,77.20
2017-08-28T15:55:22.136Z,78.10
2017-08-28T15:57:49.838Z,79.70
2017-08-28T16:00:17.530Z,78.60
2017-08-28T16:02:45.210Z,78.10
2017-08-28T16:05:12.883Z,77.80
2017-08-28T16:07:40.577Z,77.10
2017-08-28T16:10:08.257Z,77.70
2017-08-28T16:12:35.961Z,76.30
2017-08-28T16:15:03.820Z,77.70
2017-08-28T16:17:31.538Z,77.60
2017-08-28T16:19:59.261Z,77.50
2017-08-28T16:22:26.976Z,77.70
2017-08-28T16:24:54.691Z,78.70
2017-08-28T16:27:22.686Z,77.90
2017-08-28T16:29:50.371Z,81.50
2017-08-28T16:32:18.274Z,81.80
2017-08-28T16:34:45.947Z,83.90
2017-08-28T16:37:13.810Z,84.80
2017-08-28T16:39:41.483Z,85.10
2017-08-28T16:42:09.120Z,85.10
2017-08-28T16:44:36.827Z,86.20
2017-08-28T16:47:04.508Z,87.70
2017-08-28T16:49:32.209Z,87.40
2017-08-28T16:51:59.879Z,87.50
2017-08-28T16:54:27.673Z,86.90
2017-08-28T16:56:55.420Z,86.50
2017-08-28T16:59:23.077Z,86.80
2017-08-28T17:01:50.707Z,87.10
2017-08-28T17:04:18.413Z,87.50
2017-08-28T17:06:46.112Z,89.30
2017-08-28T17:09:13.798Z,89.50
2017-08-28T17:11:41.537Z,90.20
2017-08-28T17:14:09.258Z,90.00
2017-08-28T17:16:36.884Z,89.80
2017-08-28T17:19:04.581Z,90.30
2017-08-28T17:21:32.248Z,90.60
2017-08-28T17:23:59.925Z,90.80
2017-08-28T17:26:27.868Z,90.80
2017-08-28T17:28:55.575Z,91.00
2017-08-28T17:31:24.031Z,91.10
2017-08-28T17:33:52.083Z,91.30
2017-08-28T17:36:19.831Z,91.20
2017-08-28T17:38:47.457Z,91.10
2017-08-28T17:41:15.108Z,91.30
2017-08-28T17:43:42.743Z,91.30
2017-08-28T17:46:10.387Z,91.60
2017-08-28T17:48:38.055Z,91.70
2017-08-28T17:51:06.556Z,91.50
2017-08-28T17:53:34.231Z,91.50
2017-08-28T17:56:01.880Z,91.30
2017-08-28T17:58:29.553Z,91.40
2017-08-28T18:00:57.222Z,91.50
2017-08-28T18:03:24.907Z,91.90
2017-08-28T18:05:52.564Z,91.70
2017-08-28T18:08:20.210Z,91.70
2017-08-28T18:10:47.865Z,92.20
2017-08-28T18:13:17.534Z,92.40
2017-08-28T18:15:45.256Z,92.60
2017-08-28T18:18:12.931Z,92.90
2017-08-28T18:20:40.625Z,92.70
2017-08-28T18:23:08.390Z,92.90
2017-08-28T18:25:36.939Z,93.70
2017-08-28T18:28:04.593Z,93.90
2017-08-28T18:30:33.352Z,94.10
2017-08-28T18:33:06.372Z,94.50
2017-08-28T18:35:34.527Z,94.70
2017-08-28T18:38:04.713Z,94.50
2017-08-28T18:40:33.194Z,94.50
2017-08-28T18:43:00.837Z,94.60
2017-08-28T18:45:28.718Z,94.50
2017-08-28T18:48:01.311Z,94.80
2017-08-28T18:50:29.307Z,94.80
2017-08-28T18:52:57.068Z,94.90
2017-08-28T18:55:24.749Z,94.80
2017-08-28T18:57:53.255Z,95.10
2017-08-28T19:00:20.988Z,95.00
2017-08-28T19:02:48.657Z,95.30
2017-08-28T19:05:16.398Z,95.50
2017-08-28T19:07:44.069Z,95.70
2017-08-28T19:10:11.697Z,95.50
2017-08-28T19:12:39.383Z,95.10
2017-08-28T19:15:07.053Z,94.90
2017-08-28T19:17:34.710Z,94.60
2017-08-28T19:20:02.360Z,94.60
2017-08-28T19:22:30.048Z,94.50
2017-08-28T19:24:57.675Z,94.80
2017-08-28T19:27:27.272Z,94.70
2017-08-28T19:29:54.949Z,94.30
2017-08-28T19:32:22.892Z,94.30
2017-08-28T19:35:02.568Z,94.40
2017-08-28T19:37:30.551Z,94.60
2017-08-28T19:40:00.322Z,94.60
2017-08-28T19:42:27.960Z,94.50
2017-08-28T19:44:55.612Z,94.30
2017-08-28T19:47:24.106Z,94.40
2017-08-28T19:49:51.787Z,93.70
2017-08-28T19:52:20.451Z,94.10
2017-08-28T19:54:48.874Z,94.00
2017-08-28T19:57:16.512Z,94.00
2017-08-28T19:59:44.170Z,94.00
2017-08-28T20:02:11.846Z,94.10
2017-08-28T20:04:39.533Z,94.00
2017-08-28T20:07:07.868Z,94.00
2017-08-28T20:09:35.643Z,94.50
2017-08-28T20:12:03.263Z,94.40
2017-08-28T20:14:30.908Z,95.30
2017-08-28T20:16:58.584Z,94.60
2017-08-28T20:19:26.642Z,94.20
2017-08-28T20:21:54.298Z,94.50
2017-08-28T20:24:22.147Z,94.60
2017-08-28T20:26:49.765Z,94.60
2017-08-28T20:29:17.616Z,94.70
2017-08-28T20:31:45.314Z,94.90
2017-08-28T20:34:12.998Z,94.90
2017-08-28T20:36:40.666Z,94.90
2017-08-28T20:39:08.567Z,94.60
2017-08-28T20:41:37.022Z,94.80
2017-08-28T20:44:04.727Z,94.40
2017-08-28T20:46:32.746Z,94.20
2017-08-28T20:49:00.399Z,94.20
2017-08-28T20:51:28.974Z,94.10
2017-08-28T20:53:56.645Z,94.40
2017-08-28T20:56:24.633Z,94.30
2017-08-28T20:58:54.168Z,94.30
2017-08-28T21:01:21.888Z,95.10
2017-08-28T21:03:49.560Z,95.50
2017-08-28T21:06:17.212Z,95.30
2017-08-28T21:08:44.936Z,94.90
2017-08-28T21:11:12.859Z,94.60
2017-08-28T21:19:24.543Z,94.50
2017-08-28T21:21:52.210Z,94.20
2017-08-28T21:24:19.843Z,94.60
2017-08-28T21:26:47.551Z,94.50
2017-08-28T21:29:15.548Z,94.50
2017-08-28T21:31:43.216Z,94.70
2017-08-28T21:34:10.922Z,94.50
2017-08-28T21:36:38.549Z,94.50
2017-08-28T21:39:06.174Z,94.40
2017-08-28T21:41:33.798Z,94.50
2017-08-28T21:44:01.429Z,94.60
2017-08-28T21:46:29.063Z,94.30
2017-08-28T21:48:56.716Z,93.70
2017-08-28T21:51:24.339Z,93.70
2017-08-28T21:53:51.961Z,93.20
2017-08-28T21:56:19.607Z,93.50
2017-08-28T21:58:47.216Z,92.90
2017-08-28T22:01:14.904Z,93.00
2017-08-28T22:03:42.567Z,92.90
2017-08-28T22:06:10.353Z,92.30
2017-08-28T22:08:38.036Z,92.60
2017-08-28T22:11:05.665Z,92.60
2017-08-28T22:13:33.356Z,93.00
2017-08-28T22:16:01.060Z,92.80
2017-08-28T22:18:29.510Z,92.80
2017-08-28T22:21:00.789Z,92.60
2017-08-28T22:23:29.126Z,92.70
2017-08-28T22:25:56.821Z,92.20
2017-08-28T22:28:24.485Z,92.50
2017-08-28T22:30:53.454Z,92.40
2017-08-28T22:33:21.171Z,92.30
2017-08-28T22:35:48.811Z,92.70
2017-08-28T22:38:18.756Z,92.90
2017-08-28T22:40:46.352Z,93.20
2017-08-28T22:43:13.996Z,93.10
2017-08-28T22:45:41.650Z,93.20
2017-08-28T22:48:09.268Z,93.30
2017-08-28T22:50:36.938Z,93.30
2017-08-28T22:53:04.573Z,93.30
2017-08-28T22:55:32.158Z,92.80
2017-08-28T22:58:00.023Z,92.90
2017-08-28T23:00:27.657Z,93.10
2017-08-28T23:02:55.282Z,93.60
2017-08-28T23:05:23.774Z,93.20
2017-08-28T23:07:51.394Z,93.30
2017-08-28T23:10:19.026Z,93.30
2017-08-28T23:12:46.709Z,93.30
2017-08-28T23:15:15.259Z,93.10
2017-08-28T23:17:42.871Z,93.30
2017-08-28T23:20:10.596Z,93.50
2017-08-28T23:22:38.234Z,93.40
2017-08-28T23:25:07.209Z,93.50
2017-08-28T23:27:35.144Z,93.30
2017-08-28T23:30:02.783Z,93.30
2017-08-28T23:32:31.095Z,93.50
2017-08-28T23:34:58.744Z,93.40
2017-08-28T23:37:26.375Z,93.50
2017-08-28T23:39:54.012Z,94.10
2017-08-28T23:42:21.631Z,93.90
2017-08-28T23:44:49.286Z,93.70
2017-08-28T23:47:16.906Z,93.60
2017-08-28T23:49:44.563Z,93.70
2017-08-28T23:52:12.217Z,93.60
2017-08-28T23:54:39.832Z,93.40
2017-08-28T23:57:07.470Z,93.90
2017-08-28T23:59:35.088Z,93.80
